Time;durP1;ratioP1;P1;durP2;ratioP2;P2;SDS_P1;SDS_P2;PMS_P1;PMS_P2;Temp;Humidity;BMP_temperature;BMP_pressure;BME280_temperature;BME280_humidity;BME280_pressure;Samples;Min_cycle;Max_cycle;Signal;HPM_P1;HPM_P2
2022/09/03 00:00:13;;;;;;;0.52;0.40;;;17.90;49.20;;;;;;6274956;22;20004;-74
2022/09/03 00:02:45;;;;;;;0.50;0.50;;;18.00;49.30;;;;;;6248045;22;20004;-74
2022/09/03 00:05:20;;;;;;;0.43;0.40;;;17.90;49.30;;;;;;6275299;22;20027;-74
2022/09/03 00:08:13;;;;;;;0.65;0.40;;;17.90;49.30;;;;;;6275689;22;20332;-74
2022/09/03 00:11:05;;;;;;;0.65;0.43;;;17.90;49.40;;;;;;6275729;22;20000;-74
2022/09/03 00:13:41;;;;;;;0.47;0.47;;;17.90;49.40;;;;;;6274741;22;19996;-74
2022/09/03 00:16:11;;;;;;;1.38;0.50;;;17.90;49.40;;;;;;6275331;22;20007;-74
2022/09/03 00:18:44;;;;;;;0.70;0.50;;;17.90;49.50;;;;;;6223475;22;20004;-74
2022/09/03 00:21:18;;;;;;;0.30;0.30;;;17.80;49.50;;;;;;6275128;22;20418;-74
2022/09/03 00:23:47;;;;;;;0.55;0.40;;;17.70;49.50;;;;;;6274290;22;20004;-73
2022/09/03 00:26:21;;;;;;;0.25;0.25;;;17.80;49.60;;;;;;6274887;22;20494;-74
2022/09/03 00:28:55;;;;;;;0.30;0.30;;;17.80;49.70;;;;;;6274910;22;20428;-74
2022/09/03 00:31:27;;;;;;;0.43;0.40;;;17.70;49.70;;;;;;6275362;22;20026;-73
2022/09/03 00:33:58;;;;;;;0.20;0.20;;;17.70;49.70;;;;;;6275589;22;20000;-74
2022/09/03 00:36:44;;;;;;;0.85;0.45;;;17.70;49.80;;;;;;6269511;22;20011;-74
2022/09/03 00:39:14;;;;;;;1.15;0.47;;;17.70;49.80;;;;;;6251851;22;20015;-74
2022/09/03 00:42:15;;;;;;;0.40;0.32;;;17.70;49.90;;;;;;6248086;22;20004;-73
2022/09/03 00:44:59;;;;;;;1.75;0.40;;;17.60;50.00;;;;;;6247715;22;20003;-74
2022/09/03 00:47:44;;;;;;;0.50;0.50;;;17.60;50.00;;;;;;6274896;22;20035;-74
2022/09/03 00:50:28;;;;;;;0.65;0.40;;;17.60;50.20;;;;;;6248485;22;20004;-74
2022/09/03 00:53:14;;;;;;;0.40;0.40;;;17.60;50.20;;;;;;6250698;22;20053;-74
2022/09/03 00:56:12;;;;;;;0.40;0.40;;;17.50;50.30;;;;;;6248630;22;19996;-73
2022/09/03 00:58:54;;;;;;;0.38;0.38;;;17.50;50.30;;;;;;6274761;22;20058;-74
2022/09/03 01:01:28;;;;;;;0.70;0.52;;;17.40;50.40;;;;;;6249498;22;20004;-74
2022/09/03 01:04:23;;;;;;;0.38;0.38;;;17.40;50.50;;;;;;6274989;22;20488;-74
2022/09/03 01:07:04;;;;;;;1.17;0.45;;;17.40;50.50;;;;;;6274929;22;20007;-74
2022/09/03 01:09:47;;;;;;;0.40;0.40;;;17.30;50.50;;;;;;6275140;22;19999;-73
2022/09/03 01:12:52;;;;;;;0.60;0.32;;;17.30;50.60;;;;;;6272180;22;20440;-74
2022/09/03 01:15:35;;;;;;;0.80;0.50;;;17.30;50.60;;;;;;6252273;22;20006;-73
2022/09/03 01:18:24;;;;;;;0.30;0.30;;;17.30;50.70;;;;;;6274496;22;20007;-74
2022/09/03 01:21:15;;;;;;;0.50;0.40;;;17.20;50.80;;;;;;6275388;22;20035;-73
2022/09/03 01:24:06;;;;;;;0.50;0.40;;;17.20;50.80;;;;;;6247328;22;20007;-74
2022/09/03 01:27:00;;;;;;;0.50;0.43;;;17.10;50.80;;;;;;6275063;22;20069;-74
2022/09/03 01:29:54;;;;;;;0.30;0.30;;;17.10;50.90;;;;;;6274674;22;20436;-74
2022/09/03 01:32:34;;;;;;;0.60;0.30;;;17.10;50.90;;;;;;6275498;22;20049;-73
2022/09/03 01:35:19;;;;;;;0.45;0.45;;;17.10;51.00;;;;;;6274547;22;20026;-73
2022/09/03 01:38:05;;;;;;;0.30;0.30;;;17.00;51.00;;;;;;6274936;22;20023;-74
2022/09/03 01:40:46;;;;;;;0.30;0.30;;;17.00;51.00;;;;;;6272018;22;20125;-73
2022/09/03 01:43:35;;;;;;;0.30;0.30;;;16.90;51.00;;;;;;6248380;22;20012;-74
2022/09/03 01:46:15;;;;;;;0.30;0.30;;;17.00;51.20;;;;;;6274602;22;20008;-74
2022/09/03 01:48:55;;;;;;;0.30;0.30;;;17.00;51.20;;;;;;6247262;22;20026;-74
2022/09/03 01:51:24;;;;;;;0.55;0.40;;;17.00;51.20;;;;;;6275054;22;20420;-74
2022/09/03 01:54:20;;;;;;;0.43;0.40;;;16.90;51.20;;;;;;6274575;22;20000;-73
2022/09/03 01:57:10;;;;;;;0.52;0.30;;;16.90;51.30;;;;;;6223551;22;20324;-74
2022/09/03 01:59:45;;;;;;;0.30;0.30;;;16.90;51.30;;;;;;6275019;22;20003;-74
2022/09/03 02:02:21;;;;;;;0.50;0.40;;;16.90;51.30;;;;;;6274937;22;20003;-73
2022/09/03 02:05:08;;;;;;;0.30;0.30;;;16.80;51.30;;;;;;6275238;22;20008;-74
2022/09/03 02:07:38;;;;;;;0.40;0.40;;;16.90;51.50;;;;;;6275440;22;20007;-74
2022/09/03 02:10:08;;;;;;;0.40;0.40;;;16.80;51.40;;;;;;6245212;22;20018;-74
2022/09/03 02:12:36;;;;;;;0.40;0.40;;;16.80;51.40;;;;;;6268882;22;20014;-74
2022/09/03 02:15:08;;;;;;;0.40;0.40;;;16.80;51.50;;;;;;6274644;22;20374;-74
2022/09/03 02:17:35;;;;;;;0.45;0.45;;;16.80;51.50;;;;;;6249044;22;20007;-74
2022/09/03 02:20:06;;;;;;;0.95;0.40;;;16.80;51.60;;;;;;6248210;22;20018;-74
2022/09/03 02:22:33;;;;;;;0.45;0.32;;;16.80;51.60;;;;;;6274464;22;20439;-73
2022/09/03 02:25:00;;;;;;;0.45;0.35;;;16.80;51.70;;;;;;6274328;22;20003;-74
2022/09/03 02:27:26;;;;;;;0.43;0.30;;;16.70;52.20;;;;;;6274345;22;20053;-74
2022/09/03 02:29:52;;;;;;;0.40;0.40;;;16.70;51.70;;;;;;6274808;22;20000;-74
2022/09/03 02:32:18;;;;;;;0.30;0.30;;;16.60;51.60;;;;;;6274898;22;20028;-73
2022/09/03 02:34:44;;;;;;;0.50;0.40;;;16.70;51.80;;;;;;6274475;22;20030;-74
2022/09/03 02:37:13;;;;;;;0.22;0.22;;;16.60;51.80;;;;;;6274520;22;20000;-74
2022/09/03 02:39:40;;;;;;;0.32;0.32;;;16.60;51.90;;;;;;6274797;22;20004;-74
2022/09/03 02:42:06;;;;;;;0.40;0.40;;;16.60;51.90;;;;;;6274919;22;20007;-73
2022/09/03 02:44:35;;;;;;;0.30;0.30;;;16.60;51.90;;;;;;6247458;22;20004;-74
2022/09/03 02:47:03;;;;;;;0.40;0.40;;;16.60;52.00;;;;;;6274166;22;20046;-74
2022/09/03 02:49:30;;;;;;;0.60;0.40;;;16.60;52.00;;;;;;6274411;22;20456;-74
2022/09/03 02:52:00;;;;;;;0.30;0.30;;;16.50;52.00;;;;;;6274775;22;20054;-73
2022/09/03 02:54:27;;;;;;;0.20;0.20;;;16.50;52.00;;;;;;6274441;22;20078;-73
2022/09/03 02:56:53;;;;;;;0.30;0.30;;;16.50;52.10;;;;;;6246960;22;20023;-73
2022/09/03 02:59:21;;;;;;;0.30;0.30;;;16.50;52.20;;;;;;6274450;22;20066;-74
2022/09/03 03:01:47;;;;;;;0.25;0.25;;;16.50;52.20;;;;;;6274494;22;20378;-73
2022/09/03 03:04:13;;;;;;;0.40;0.35;;;16.50;52.30;;;;;;6274409;22;20018;-74
2022/09/03 03:06:38;;;;;;;0.30;0.30;;;16.40;52.20;;;;;;6247059;22;20012;-74
2022/09/03 03:09:04;;;;;;;0.38;0.38;;;16.50;52.40;;;;;;6274778;22;20443;-74
2022/09/03 03:11:30;;;;;;;0.43;0.28;;;16.40;52.40;;;;;;6274725;22;20086;-74
2022/09/03 03:13:56;;;;;;;0.30;0.30;;;16.50;52.40;;;;;;6273862;22;20501;-73
2022/09/03 03:16:22;;;;;;;0.30;0.30;;;16.40;52.40;;;;;;6274294;22;20011;-73
2022/09/03 03:18:48;;;;;;;0.38;0.30;;;16.40;52.40;;;;;;6246262;22;20012;-73
2022/09/03 03:21:16;;;;;;;0.30;0.30;;;16.40;52.40;;;;;;6274340;22;20008;-73
2022/09/03 03:23:42;;;;;;;0.63;0.50;;;16.30;52.40;;;;;;6244868;22;20004;-73
2022/09/03 03:26:11;;;;;;;0.30;0.30;;;16.40;52.50;;;;;;6273954;22;20102;-74
2022/09/03 03:28:37;;;;;;;0.20;0.20;;;16.40;52.50;;;;;;6273964;22;20050;-74
2022/09/03 03:31:08;;;;;;;0.20;0.20;;;16.30;52.50;;;;;;6274026;22;20027;-73
2022/09/03 03:33:34;;;;;;;0.32;0.32;;;16.30;52.60;;;;;;6274047;22;20022;-74
2022/09/03 03:36:10;;;;;;;0.30;0.30;;;16.30;52.70;;;;;;6273877;22;20003;-74
2022/09/03 03:38:36;;;;;;;0.50;0.40;;;16.30;52.70;;;;;;6273728;22;20011;-73
2022/09/03 03:41:07;;;;;;;0.30;0.30;;;16.20;52.70;;;;;;6247630;22;20364;-73
2022/09/03 03:43:33;;;;;;;0.22;0.22;;;16.20;52.80;;;;;;6247296;22;20446;-73
2022/09/03 03:45:59;;;;;;;0.43;0.43;;;16.20;52.90;;;;;;6274328;22;20011;-74
2022/09/03 03:48:25;;;;;;;0.30;0.30;;;16.10;52.90;;;;;;6274133;22;20000;-74
2022/09/03 03:50:52;;;;;;;0.47;0.47;;;16.10;53.00;;;;;;6274129;22;20439;-73
2022/09/03 03:53:18;;;;;;;0.43;0.40;;;16.10;53.00;;;;;;6273877;22;20498;-74
2022/09/03 03:55:55;;;;;;;0.70;0.43;;;16.10;53.10;;;;;;6247365;22;20064;-73
2022/09/03 03:58:21;;;;;;;0.30;0.30;;;16.00;53.10;;;;;;6275040;22;20505;-74
2022/09/03 04:00:48;;;;;;;0.30;0.30;;;16.00;53.10;;;;;;6249316;22;20342;-74
2022/09/03 04:03:13;;;;;;;0.30;0.30;;;16.00;53.20;;;;;;6275788;22;20331;-73
2022/09/03 04:05:39;;;;;;;0.47;0.45;;;16.00;53.20;;;;;;6247823;22;20043;-73
2022/09/03 04:08:05;;;;;;;0.30;0.30;;;16.00;53.30;;;;;;6248491;22;20000;-74
2022/09/03 04:10:31;;;;;;;0.45;0.40;;;16.00;53.30;;;;;;6275677;22;20331;-74
2022/09/03 04:12:57;;;;;;;0.47;0.30;;;15.90;53.30;;;;;;6248342;22;20053;-74
2022/09/03 04:15:23;;;;;;;0.22;0.22;;;15.90;53.30;;;;;;6275812;22;20074;-74
2022/09/03 04:17:49;;;;;;;0.28;0.28;;;15.90;53.40;;;;;;6223204;22;20492;-74
2022/09/03 04:20:15;;;;;;;0.38;0.35;;;15.80;53.40;;;;;;6275765;22;20114;-73
2022/09/03 04:22:40;;;;;;;0.30;0.30;;;15.90;53.50;;;;;;6275647;22;20027;-74
2022/09/03 04:25:06;;;;;;;0.28;0.28;;;15.80;53.50;;;;;;6249044;22;20003;-74
2022/09/03 04:27:32;;;;;;;0.28;0.28;;;15.80;53.50;;;;;;6275790;22;20030;-74
2022/09/03 04:29:58;;;;;;;0.30;0.30;;;15.80;53.60;;;;;;6275374;22;19996;-74
2022/09/03 04:35:05;;;;;;;0.28;0.28;;;15.80;53.70;;;;;;6275371;22;20012;-73
2022/09/03 04:37:32;;;;;;;0.20;0.20;;;15.80;53.70;;;;;;6269976;22;20416;-73
2022/09/03 04:39:57;;;;;;;0.30;0.20;;;15.70;53.60;;;;;;6248564;22;20088;-73
2022/09/03 04:42:23;;;;;;;0.20;0.20;;;15.80;53.70;;;;;;6249086;22;20027;-73
2022/09/03 04:44:49;;;;;;;0.32;0.32;;;15.80;53.70;;;;;;6276240;22;20003;-73
2022/09/03 04:47:15;;;;;;;0.32;0.28;;;15.80;53.70;;;;;;6275545;22;20046;-73
2022/09/03 04:49:41;;;;;;;0.40;0.30;;;15.80;53.80;;;;;;6275858;22;20015;-73
2022/09/03 04:52:07;;;;;;;0.20;0.20;;;15.70;53.70;;;;;;6248213;22;20000;-73
2022/09/03 04:54:32;;;;;;;0.30;0.30;;;15.70;53.80;;;;;;6248853;22;20051;-73
2022/09/03 04:56:58;;;;;;;0.50;0.30;;;15.70;53.90;;;;;;6275263;22;20034;-73
2022/09/03 04:59:24;;;;;;;0.40;0.40;;;15.70;53.90;;;;;;6248127;22;20090;-73
2022/09/03 05:01:51;;;;;;;0.20;0.20;;;15.60;53.80;;;;;;6275261;22;20057;-73
2022/09/03 05:04:18;;;;;;;0.30;0.30;;;15.60;53.90;;;;;;6249389;22;20000;-73
2022/09/03 05:06:44;;;;;;;0.20;0.20;;;15.60;53.90;;;;;;6248505;22;20018;-73
2022/09/03 05:09:10;;;;;;;0.40;0.40;;;15.60;54.00;;;;;;6274982;22;20071;-73
2022/09/03 05:11:36;;;;;;;0.57;0.40;;;15.60;54.00;;;;;;6275242;22;20418;-73
2022/09/03 05:14:02;;;;;;;0.30;0.30;;;15.60;54.00;;;;;;6275185;22;20416;-73
2022/09/03 05:16:29;;;;;;;0.28;0.28;;;15.60;54.00;;;;;;6275477;22;20000;-73
2022/09/03 05:18:58;;;;;;;0.25;0.25;;;15.60;54.10;;;;;;6222824;22;20011;-73
2022/09/03 05:21:24;;;;;;;0.30;0.30;;;15.60;54.10;;;;;;6248560;22;20031;-73
2022/09/03 05:23:51;;;;;;;0.30;0.30;;;15.60;54.10;;;;;;6248179;22;20477;-73
2022/09/03 05:26:21;;;;;;;0.20;0.20;;;15.60;54.20;;;;;;6275591;22;20035;-73
2022/09/03 05:28:47;;;;;;;0.55;0.30;;;15.60;54.20;;;;;;6275076;22;20050;-74
2022/09/03 05:31:16;;;;;;;0.30;0.30;;;15.60;54.20;;;;;;6275539;22;20050;-73
2022/09/03 05:33:51;;;;;;;0.30;0.30;;;15.50;54.20;;;;;;6275670;22;20027;-73
2022/09/03 05:36:19;;;;;;;0.20;0.20;;;15.60;54.30;;;;;;6248893;22;20091;-74
2022/09/03 05:38:46;;;;;;;0.20;0.20;;;15.60;54.20;;;;;;6275514;22;20428;-73
2022/09/03 05:41:13;;;;;;;0.52;0.30;;;15.60;54.30;;;;;;6275243;22;20047;-73
2022/09/03 05:43:40;;;;;;;0.40;0.40;;;15.60;54.30;;;;;;6248088;22;20432;-73
2022/09/03 05:46:08;;;;;;;0.85;0.30;;;15.60;54.20;;;;;;6274657;22;20026;-73
2022/09/03 05:48:35;;;;;;;0.20;0.20;;;15.60;54.30;;;;;;6247570;22;20324;-73
2022/09/03 05:51:05;;;;;;;0.32;0.32;;;15.60;54.30;;;;;;6275319;22;19995;-73
2022/09/03 05:53:34;;;;;;;0.28;0.28;;;15.60;54.30;;;;;;6275074;22;20042;-73
2022/09/03 05:56:02;;;;;;;0.20;0.20;;;15.70;54.30;;;;;;6247490;22;20328;-74
2022/09/03 05:58:30;;;;;;;0.30;0.30;;;15.70;54.30;;;;;;6249089;22;20070;-73
2022/09/03 06:00:56;;;;;;;0.28;0.28;;;15.70;54.30;;;;;;6275032;22;20004;-73
2022/09/03 06:03:22;;;;;;;1.17;0.38;;;15.80;54.30;;;;;;6274784;22;20014;-73
2022/09/03 06:05:50;;;;;;;0.30;0.30;;;15.80;54.30;;;;;;6275235;22;20090;-73
2022/09/03 06:08:16;;;;;;;0.57;0.30;;;15.80;54.30;;;;;;6248542;22;20087;-73
2022/09/03 06:10:42;;;;;;;0.40;0.40;;;15.80;54.20;;;;;;6275420;22;20000;-74
2022/09/03 06:13:07;;;;;;;0.30;0.30;;;15.80;54.20;;;;;;6247663;22;20000;-74
2022/09/03 06:15:33;;;;;;;0.20;0.20;;;15.90;54.30;;;;;;6247922;22;20000;-74
2022/09/03 06:17:59;;;;;;;0.40;0.40;;;15.80;54.20;;;;;;6245563;22;20004;-74
2022/09/03 06:20:27;;;;;;;0.30;0.30;;;15.90;54.20;;;;;;6274806;22;20378;-74
2022/09/03 06:22:54;;;;;;;0.40;0.20;;;15.90;54.20;;;;;;6275121;22;20004;-74
2022/09/03 06:25:20;;;;;;;0.40;0.40;;;15.90;54.20;;;;;;6275031;22;20004;-74
2022/09/03 06:27:46;;;;;;;0.30;0.30;;;16.00;54.20;;;;;;6275088;22;20010;-74
2022/09/03 06:30:12;;;;;;;0.40;0.40;;;16.00;54.20;;;;;;6223192;22;20011;-74
2022/09/03 06:32:46;;;;;;;0.20;0.20;;;16.00;54.20;;;;;;6274619;22;20011;-74
2022/09/03 06:35:12;;;;;;;0.25;0.25;;;16.00;54.10;;;;;;6271942;22;20436;-74
2022/09/03 06:37:39;;;;;;;0.25;0.25;;;16.10;54.10;;;;;;6274468;22;20008;-75
2022/09/03 06:40:11;;;;;;;0.30;0.30;;;16.10;54.10;;;;;;6275561;22;19991;-74
2022/09/03 06:42:39;;;;;;;0.20;0.20;;;16.20;54.10;;;;;;6275263;22;20424;-74
2022/09/03 06:45:07;;;;;;;0.20;0.20;;;16.30;54.20;;;;;;6274981;22;19996;-74
2022/09/03 06:47:33;;;;;;;0.20;0.20;;;16.20;54.10;;;;;;6274730;22;20129;-75
2022/09/03 06:50:00;;;;;;;0.28;0.28;;;16.30;54.10;;;;;;6247510;22;20008;-75
2022/09/03 06:52:27;;;;;;;0.40;0.40;;;16.30;54.10;;;;;;6247246;22;20004;-75
2022/09/03 06:54:53;;;;;;;0.20;0.20;;;16.30;54.10;;;;;;6274445;22;20073;-76
2022/09/03 06:57:19;;;;;;;0.30;0.30;;;16.30;54.00;;;;;;6247452;22;20427;-75
2022/09/03 06:59:45;;;;;;;0.30;0.30;;;16.40;54.00;;;;;;6247353;22;20325;-76
2022/09/03 07:02:10;;;;;;;0.38;0.38;;;16.40;54.00;;;;;;6274396;22;20079;-77
2022/09/03 07:04:36;;;;;;;0.35;0.35;;;16.50;54.00;;;;;;6248293;22;20000;-76
2022/09/03 07:07:02;;;;;;;0.30;0.30;;;16.50;54.00;;;;;;6246980;22;20340;-76
2022/09/03 07:09:28;;;;;;;0.30;0.30;;;16.50;53.90;;;;;;6247347;22;20053;-76
2022/09/03 07:11:54;;;;;;;0.30;0.30;;;16.60;53.90;;;;;;6247626;22;20023;-75
2022/09/03 07:14:20;;;;;;;0.30;0.30;;;16.70;54.00;;;;;;6247226;22;20091;-75
2022/09/03 07:16:48;;;;;;;0.40;0.40;;;16.70;53.90;;;;;;6274116;22;20038;-74
2022/09/03 07:19:14;;;;;;;0.38;0.30;;;16.80;53.90;;;;;;6274521;22;20012;-75
2022/09/03 07:21:41;;;;;;;1.00;0.47;;;16.80;53.80;;;;;;6245923;22;20016;-75
2022/09/03 07:24:07;;;;;;;0.30;0.30;;;16.80;53.80;;;;;;6274860;22;20011;-75
2022/09/03 07:26:36;;;;;;;0.82;0.40;;;16.90;53.80;;;;;;6246954;22;20011;-75
2022/09/03 07:29:03;;;;;;;0.30;0.30;;;17.00;53.70;;;;;;6274162;22;20031;-75
2022/09/03 07:31:34;;;;;;;0.25;0.25;;;17.00;53.60;;;;;;6218148;22;20046;-76
2022/09/03 07:34:04;;;;;;;0.20;0.20;;;17.10;53.60;;;;;;6249781;22;20015;-74
2022/09/03 07:36:34;;;;;;;0.27;0.27;;;17.20;53.60;;;;;;6275392;22;20472;-75
2022/09/03 07:39:00;;;;;;;0.20;0.20;;;17.30;53.60;;;;;;6249266;22;20035;-75
2022/09/03 07:41:26;;;;;;;0.40;0.30;;;17.30;53.50;;;;;;6275325;22;20054;-75
2022/09/03 07:43:53;;;;;;;0.20;0.20;;;17.40;53.50;;;;;;6275955;22;20000;-75
2022/09/03 07:46:24;;;;;;;0.77;0.40;;;17.40;53.50;;;;;;6248305;22;20356;-75
2022/09/03 07:48:51;;;;;;;;;;;17.50;53.50;;;;;;6248550;22;20010;-75
2022/09/03 07:51:18;;;;;;;0.30;0.30;;;17.70;53.40;;;;;;6275146;22;19995;-75
2022/09/03 07:53:45;;;;;;;0.30;0.30;;;17.70;53.30;;;;;;6276022;22;20003;-75
2022/09/03 07:56:12;;;;;;;0.30;0.30;;;17.80;53.10;;;;;;6275295;22;20010;-75
2022/09/03 07:58:40;;;;;;;0.30;0.25;;;17.80;53.00;;;;;;6248337;22;20008;-75
2022/09/03 08:01:11;;;;;;;0.35;0.30;;;18.00;53.00;;;;;;6276079;22;20053;-75
2022/09/03 08:03:38;;;;;;;0.47;0.30;;;18.10;52.90;;;;;;6275442;22;20010;-75
2022/09/03 08:06:07;;;;;;;0.45;0.40;;;18.10;52.70;;;;;;6248713;22;20015;-75
2022/09/03 08:08:35;;;;;;;0.38;0.38;;;18.30;52.60;;;;;;6220856;22;20011;-75
2022/09/03 08:11:09;;;;;;;1.23;0.30;;;18.50;52.50;;;;;;6223056;22;20007;-75
2022/09/03 08:13:39;;;;;;;0.52;0.30;;;18.60;52.20;;;;;;6275287;22;20011;-75
2022/09/03 08:16:07;;;;;;;0.30;0.30;;;18.80;52.00;;;;;;6248480;22;20012;-75
2022/09/03 08:18:36;;;;;;;0.40;0.40;;;19.10;51.80;;;;;;6247955;22;20458;-75
2022/09/03 08:21:05;;;;;;;0.30;0.30;;;19.30;51.70;;;;;;6275533;22;20004;-75
2022/09/03 08:23:32;;;;;;;0.20;0.20;;;19.50;51.50;;;;;;6248221;22;20026;-75
2022/09/03 08:26:00;;;;;;;0.30;0.30;;;19.70;51.30;;;;;;6275100;22;20007;-75
2022/09/03 08:28:26;;;;;;;0.30;0.30;;;19.90;51.10;;;;;;6248607;22;20003;-74
2022/09/03 08:30:52;;;;;;;0.20;0.20;;;20.10;51.00;;;;;;6275504;22;20000;-75
2022/09/03 08:35:55;;;;;;;0.30;0.30;;;20.40;50.60;;;;;;6250825;22;20011;-75
2022/09/03 08:38:23;;;;;;;0.50;0.40;;;20.70;50.60;;;;;;6275040;22;20027;-75
2022/09/03 08:40:49;;;;;;;0.30;0.30;;;20.80;50.40;;;;;;6275477;22;20011;-74
2022/09/03 08:43:17;;;;;;;0.40;0.40;;;21.00;50.30;;;;;;6275928;22;20003;-74
2022/09/03 08:45:44;;;;;;;0.30;0.30;;;21.10;50.20;;;;;;6274773;22;20011;-74
2022/09/03 08:48:16;;;;;;;1.30;0.40;;;21.30;50.10;;;;;;6247836;22;20508;-75
2022/09/03 08:50:47;;;;;;;0.20;0.20;;;21.40;50.00;;;;;;6247920;22;20000;-75
2022/09/03 08:53:25;;;;;;;0.32;0.32;;;21.50;49.90;;;;;;6248651;22;20003;-76
2022/09/03 08:55:55;;;;;;;0.30;0.30;;;21.70;49.90;;;;;;6248478;22;20084;-76
2022/09/03 08:58:25;;;;;;;0.47;0.30;;;21.80;49.80;;;;;;6275320;22;20074;-76
2022/09/03 09:01:10;;;;;;;0.30;0.30;;;21.90;49.70;;;;;;6248589;22;20015;-76
2022/09/03 09:03:52;;;;;;;0.30;0.30;;;22.10;49.60;;;;;;6274735;22;20458;-76
2022/09/03 09:06:43;;;;;;;0.60;0.40;;;22.30;49.50;;;;;;6274853;22;20090;-76
2022/09/03 09:09:29;;;;;;;0.30;0.30;;;22.40;49.40;;;;;;6275036;22;20031;-74
2022/09/03 09:12:20;;;;;;;0.30;0.30;;;22.50;49.30;;;;;;6275548;22;19996;-75
2022/09/03 09:15:04;;;;;;;0.38;0.38;;;22.60;49.10;;;;;;6275247;22;19996;-74
2022/09/03 09:17:50;;;;;;;0.30;0.30;;;22.80;49.10;;;;;;6276674;22;20073;-74
2022/09/03 09:20:43;;;;;;;0.88;0.30;;;22.80;49.10;;;;;;6277780;22;20000;-74
2022/09/03 09:23:17;;;;;;;0.30;0.30;;;23.00;49.00;;;;;;6255609;22;20031;-74
2022/09/03 09:25:48;;;;;;;0.40;0.30;;;23.10;49.00;;;;;;6251498;22;20018;-74
2022/09/03 09:28:20;;;;;;;0.47;0.47;;;23.20;48.90;;;;;;6250650;22;20007;-74
2022/09/03 09:30:48;;;;;;;0.30;0.30;;;23.20;48.90;;;;;;6276752;22;20052;-74
2022/09/03 09:33:15;;;;;;;0.40;0.40;;;23.20;49.00;;;;;;6249426;22;20008;-74
2022/09/03 09:35:42;;;;;;;0.40;0.40;;;23.30;49.00;;;;;;6247153;22;20012;-74
2022/09/03 09:38:09;;;;;;;0.30;0.30;;;23.40;48.90;;;;;;6275392;22;19999;-74
2022/09/03 09:40:39;;;;;;;0.40;0.40;;;23.50;48.90;;;;;;6248073;22;20004;-74
2022/09/03 09:43:09;;;;;;;0.30;0.30;;;23.40;48.70;;;;;;6275093;22;20000;-74
2022/09/03 09:45:38;;;;;;;;;;;23.60;48.90;;;;;;6275372;22;20015;-74
2022/09/03 09:48:09;;;;;;;0.40;0.40;;;23.50;48.80;;;;;;6275058;22;19906;-74
2022/09/03 09:50:35;;;;;;;0.30;0.30;;;23.60;48.80;;;;;;6274814;22;20062;-74
2022/09/03 09:53:13;;;;;;;0.30;0.30;;;23.60;48.70;;;;;;6271809;22;20035;-74
2022/09/03 09:55:55;;;;;;;0.30;0.30;;;23.70;48.80;;;;;;6243399;22;20022;-74
2022/09/03 09:58:23;;;;;;;0.30;0.30;;;23.70;48.80;;;;;;6272641;22;20098;-74
2022/09/03 10:01:13;;;;;;;0.30;0.30;;;23.60;48.70;;;;;;6247675;22;20436;-74
2022/09/03 10:03:49;;;;;;;0.40;0.40;;;23.70;48.70;;;;;;6248521;22;20004;-74
2022/09/03 10:09:14;;;;;;;0.40;0.40;;;23.70;48.60;;;;;;6275143;22;20372;-74
2022/09/03 10:11:45;;;;;;;0.30;0.30;;;23.70;48.50;;;;;;6275187;22;20301;-74
2022/09/03 10:14:23;;;;;;;0.25;0.25;;;23.70;48.50;;;;;;6275124;22;20050;-74
2022/09/03 10:16:56;;;;;;;0.30;0.30;;;23.80;48.50;;;;;;6274983;22;20012;-75
2022/09/03 10:19:33;;;;;;;0.30;0.30;;;23.80;48.50;;;;;;6275501;22;20000;-74
2022/09/03 10:22:16;;;;;;;0.32;0.30;;;23.70;48.30;;;;;;6274985;22;20000;-75
2022/09/03 10:24:58;;;;;;;0.28;0.28;;;23.80;48.20;;;;;;6248094;22;20023;-74
2022/09/03 10:27:24;;;;;;;0.40;0.40;;;23.80;48.20;;;;;;6275912;22;20007;-74
2022/09/03 10:29:52;;;;;;;0.45;0.45;;;23.80;48.20;;;;;;6276054;22;20003;-75
2022/09/03 10:32:35;;;;;;;0.50;0.50;;;23.80;48.10;;;;;;6275697;22;20007;-75
2022/09/03 10:35:27;;;;;;;0.30;0.30;;;23.80;48.10;;;;;;6275512;22;20053;-74
2022/09/03 10:38:10;;;;;;;0.35;0.35;;;23.80;48.10;;;;;;6274384;22;20102;-74
2022/09/03 10:40:43;;;;;;;0.30;0.30;;;23.90;48.00;;;;;;6275971;22;20085;-75
2022/09/03 10:43:22;;;;;;;0.28;0.28;;;23.80;47.80;;;;;;6274774;22;20012;-74
2022/09/03 10:46:09;;;;;;;0.30;0.30;;;23.90;48.40;;;;;;6274856;22;20004;-74
2022/09/03 10:49:12;;;;;;;0.30;0.30;;;23.90;47.80;;;;;;6275315;22;20011;-74
2022/09/03 10:51:44;;;;;;;0.30;0.30;;;23.90;47.70;;;;;;6274951;22;20002;-74
2022/09/03 10:54:41;;;;;;;0.30;0.30;;;24.00;47.60;;;;;;6275078;22;20065;-75
2022/09/03 10:57:31;;;;;;;0.30;0.30;;;24.00;47.60;;;;;;6255147;22;20003;-74
2022/09/03 11:00:09;;;;;;;0.65;0.40;;;24.00;47.60;;;;;;6276584;22;20067;-75
2022/09/03 11:03:11;;;;;;;0.40;0.40;;;24.00;47.40;;;;;;6250859;22;20000;-74
2022/09/03 11:05:47;;;;;;;0.43;0.40;;;24.10;47.30;;;;;;6255653;22;20015;-74
2022/09/03 11:08:25;;;;;;;0.40;0.40;;;24.10;47.90;;;;;;6249858;22;20004;-74
2022/09/03 11:10:56;;;;;;;0.30;0.30;;;24.10;47.10;;;;;;6278257;22;19996;-74
2022/09/03 11:13:34;;;;;;;0.65;0.38;;;24.30;47.20;;;;;;6252640;22;19995;-74
2022/09/03 11:16:10;;;;;;;0.40;0.40;;;24.30;47.00;;;;;;6252927;22;20010;-74
2022/09/03 11:18:45;;;;;;;0.30;0.30;;;24.50;46.90;;;;;;6250839;22;20387;-74
2022/09/03 11:21:13;;;;;;;0.30;0.30;;;24.50;46.80;;;;;;6278135;22;20366;-74
2022/09/03 11:23:46;;;;;;;0.30;0.30;;;24.60;46.70;;;;;;6278511;22;20809;-74
2022/09/03 11:26:17;;;;;;;0.20;0.20;;;24.60;46.50;;;;;;6250811;22;20321;-75
2022/09/03 11:29:07;;;;;;;0.30;0.30;;;24.70;46.40;;;;;;6278503;22;20079;-74
2022/09/03 11:31:46;;;;;;;0.40;0.40;;;24.70;46.30;;;;;;6278926;22;20000;-74
2022/09/03 11:34:31;;;;;;;0.30;0.30;;;24.80;46.30;;;;;;6277856;22;20042;-75
2022/09/03 11:37:12;;;;;;;0.40;0.40;;;24.90;46.20;;;;;;6250717;22;20027;-76
2022/09/03 11:39:39;;;;;;;0.40;0.40;;;25.10;46.00;;;;;;6281686;22;20031;-77
2022/09/03 11:42:11;;;;;;;0.30;0.30;;;25.10;45.90;;;;;;6280182;22;20007;-77
2022/09/03 11:44:43;;;;;;;0.40;0.40;;;25.20;45.70;;;;;;6284157;22;20004;-77
2022/09/03 11:47:22;;;;;;;0.40;0.40;;;25.40;45.60;;;;;;6284104;22;20030;-76
2022/09/03 11:49:50;;;;;;;0.40;0.40;;;25.50;45.60;;;;;;6278804;22;20320;-76
2022/09/03 11:52:31;;;;;;;0.30;0.30;;;25.60;45.50;;;;;;6281392;22;20000;-76
2022/09/03 11:54:57;;;;;;;0.30;0.30;;;25.70;45.40;;;;;;6283081;22;20026;-76
2022/09/03 11:57:32;;;;;;;0.40;0.40;;;25.60;45.30;;;;;;6286868;22;20011;-76
2022/09/03 12:00:16;;;;;;;0.30;0.30;;;25.70;45.30;;;;;;6283305;22;20007;-74
2022/09/03 12:02:47;;;;;;;0.40;0.40;;;25.70;45.30;;;;;;6250175;22;20014;-74
2022/09/03 12:05:31;;;;;;;0.40;0.40;;;25.80;45.20;;;;;;6277165;22;20328;-75
2022/09/03 12:08:27;;;;;;;0.40;0.40;;;25.80;45.20;;;;;;6225415;22;20090;-76
2022/09/03 12:11:23;;;;;;;0.40;0.40;;;25.90;45.30;;;;;;6257383;22;20439;-76
2022/09/03 12:14:03;;;;;;;0.50;0.50;;;25.90;45.20;;;;;;6255132;22;20439;-76
2022/09/03 12:16:51;;;;;;;0.35;0.35;;;25.90;45.10;;;;;;6252880;22;20086;-76
2022/09/03 12:19:44;;;;;;;0.30;0.30;;;26.00;45.10;;;;;;6276237;22;20032;-76
2022/09/03 12:22:15;;;;;;;0.40;0.40;;;26.00;45.00;;;;;;6275621;22;20124;-76
2022/09/03 12:24:43;;;;;;;0.45;0.45;;;26.00;45.00;;;;;;6275787;22;19999;-76
2022/09/03 12:27:23;;;;;;;0.35;0.35;;;26.10;45.00;;;;;;6246936;22;20008;-76
2022/09/03 12:29:56;;;;;;;0.57;0.30;;;26.10;44.90;;;;;;6249078;22;20003;-76
2022/09/03 12:32:23;;;;;;;0.40;0.40;;;26.10;44.90;;;;;;6276297;22;19996;-76
2022/09/03 12:34:49;;;;;;;0.40;0.40;;;26.10;44.80;;;;;;6275822;22;20000;-76
2022/09/03 12:37:22;;;;;;;0.30;0.30;;;26.20;44.80;;;;;;6276007;22;20083;-76
2022/09/03 12:39:52;;;;;;;0.30;0.30;;;26.30;44.80;;;;;;6275575;22;20373;-75
2022/09/03 12:42:31;;;;;;;0.40;0.40;;;26.30;44.70;;;;;;6273242;22;20008;-75
2022/09/03 12:45:11;;;;;;;0.65;0.50;;;26.30;44.80;;;;;;6274111;22;20078;-76
2022/09/03 12:47:38;;;;;;;;;;;26.40;44.80;;;;;;6246276;22;20016;-75
2022/09/03 12:50:10;;;;;;;0.55;0.45;;;26.40;44.90;;;;;;6274841;22;20239;-76
2022/09/03 12:52:45;;;;;;;0.50;0.50;;;26.40;44.90;;;;;;6249591;22;20042;-76
2022/09/03 12:55:25;;;;;;;0.50;0.50;;;26.40;44.90;;;;;;6276144;22;20000;-76
2022/09/03 12:58:02;;;;;;;1.38;0.40;;;26.40;44.90;;;;;;6277016;22;20008;-76
2022/09/03 13:00:33;;;;;;;0.50;0.50;;;26.50;44.80;;;;;;6243645;22;19999;-76
2022/09/03 13:03:04;;;;;;;0.50;0.50;;;26.60;44.80;;;;;;6275374;22;20015;-76
2022/09/03 13:05:36;;;;;;;0.50;0.50;;;26.50;44.80;;;;;;6275029;22;20004;-76
2022/09/03 13:08:06;;;;;;;1.35;0.50;;;26.50;44.80;;;;;;6274943;22;20355;-76
2022/09/03 13:10:36;;;;;;;0.40;0.40;;;26.50;44.90;;;;;;6248594;22;20015;-76
2022/09/03 13:13:20;;;;;;;0.40;0.40;;;26.60;44.90;;;;;;6249006;22;20012;-76
2022/09/03 13:16:21;;;;;;;0.50;0.50;;;26.60;44.80;;;;;;6275151;22;20039;-76
2022/09/03 13:19:07;;;;;;;0.40;0.40;;;26.50;44.80;;;;;;6275329;22;20026;-76
2022/09/03 13:22:01;;;;;;;0.40;0.40;;;26.60;44.80;;;;;;6275219;22;20019;-75
2022/09/03 13:24:54;;;;;;;0.47;0.47;;;26.70;44.80;;;;;;6275299;22;20003;-76